Time,TemperatureF,DewpointF,PressureIn,WindDirection,WindDirectionDegrees,WindSpeedMPH,WindSpeedGustMPH,Humidity,HourlyPrecipIn,Conditions,Clouds,dailyrainin,SolarRadiationWatts/m^2,SoftwareType,DateUTC
2013-09-21 00:01:00,61.0,55.0,-100.00,SE,146,7.0,14.0,81,0.00,,,0.00,0.000000,,2013-09-21 06:01:00,
2013-09-21 00:42:00,61.0,55.0,-100.00,SE,146,7.0,14.0,81,0.00,,,0.00,0.000000,,2013-09-21 06:42:00,
2013-09-21 00:53:00,61.0,55.0,-100.00,SE,146,7.0,14.0,81,0.00,,,0.00,0.000000,,2013-09-21 06:53:00,
2013-09-21 01:01:00,60.0,55.0,-100.00,SSE,148,8.0,12.0,84,0.00,,,0.00,0.000000,,2013-09-21 07:01:00,
2013-09-21 01:22:00,60.0,55.0,-100.00,SSE,148,8.0,12.0,84,0.00,,,0.00,0.000000,,2013-09-21 07:22:00,
2013-09-21 01:32:00,60.0,55.0,-100.00,SSE,148,8.0,12.0,84,0.00,,,0.00,0.000000,,2013-09-21 07:32:00,
2013-09-21 01:42:00,60.0,55.0,-100.00,SSE,148,8.0,12.0,84,0.00,,,0.00,0.000000,,2013-09-21 07:42:00,
2013-09-21 01:52:00,60.0,55.0,-100.00,SSE,148,8.0,12.0,84,0.00,,,0.00,0.000000,,2013-09-21 07:52:00,
2013-09-21 02:01:00,59.0,55.0,-100.00,SE,127,6.0,14.0,86,0.00,,,0.00,0.000000,,2013-09-21 08:01:00,
2013-09-21 02:22:00,59.0,55.0,-100.00,SE,127,6.0,14.0,86,0.00,,,0.00,0.000000,,2013-09-21 08:22:00,
2013-09-21 02:32:00,59.0,55.0,-100.00,SE,127,6.0,14.0,86,0.00,,,0.00,0.000000,,2013-09-21 08:32:00,
2013-09-21 02:42:00,59.0,55.0,-100.00,SE,127,6.0,14.0,86,0.00,,,0.00,0.000000,,2013-09-21 08:42:00,
2013-09-21 02:52:00,59.0,55.0,-100.00,SE,127,6.0,14.0,86,0.00,,,0.00,0.000000,,2013-09-21 08:52:00,
2013-09-21 03:01:00,57.0,54.0,-100.00,ESE,115,4.0,10.0,89,0.00,,,0.00,0.000000,,2013-09-21 09:01:00,
2013-09-21 03:43:00,57.0,54.0,-100.00,ESE,115,4.0,10.0,89,0.00,,,0.00,0.000000,,2013-09-21 09:43:00,
2013-09-21 03:54:00,57.0,54.0,-100.00,ESE,115,4.0,10.0,89,0.00,,,0.00,0.000000,,2013-09-21 09:54:00,
2013-09-21 04:01:00,55.0,53.0,-100.00,NE,54,3.0,6.0,94,0.00,,,0.00,0.000000,,2013-09-21 10:01:00,
2013-09-21 04:42:00,55.0,53.0,-100.00,NE,54,3.0,6.0,94,0.00,,,0.00,0.000000,,2013-09-21 10:42:00,
2013-09-21 04:52:00,55.0,53.0,-100.00,NE,54,3.0,6.0,94,0.00,,,0.00,0.000000,,2013-09-21 10:52:00,
2013-09-21 05:01:00,54.0,51.0,-100.00,East,100,3.0,5.0,91,0.00,,,0.00,0.000000,,2013-09-21 11:01:00,
2013-09-21 05:23:00,54.0,51.0,-100.00,East,100,3.0,5.0,91,0.00,,,0.00,0.000000,,2013-09-21 11:23:00,
2013-09-21 05:33:00,54.0,51.0,-100.00,East,100,3.0,5.0,91,0.00,,,0.00,0.000000,,2013-09-21 11:33:00,
2013-09-21 05:42:00,54.0,51.0,-100.00,East,100,3.0,5.0,91,0.00,,,0.00,0.000000,,2013-09-21 11:42:00,
2013-09-21 05:52:00,54.0,51.0,-100.00,East,100,3.0,5.0,91,0.00,,,0.00,0.000000,,2013-09-21 11:52:00,
2013-09-21 06:01:00,55.0,54.0,-100.00,East,81,3.0,5.0,96,0.00,,,0.00,0.000000,,2013-09-21 12:01:00,
2013-09-21 06:42:00,55.0,54.0,-100.00,East,81,3.0,5.0,96,0.00,,,0.00,0.000000,,2013-09-21 12:42:00,
2013-09-21 06:52:00,55.0,54.0,-100.00,East,81,3.0,5.0,96,0.00,,,0.00,0.000000,,2013-09-21 12:52:00,
2013-09-21 07:01:00,54.0,53.0,-100.00,East,92,2.0,5.0,96,0.00,,,0.00,1.000000,,2013-09-21 13:01:00,
2013-09-21 07:22:00,54.0,53.0,-100.00,East,92,2.0,5.0,96,0.00,,,0.00,1.000000,,2013-09-21 13:22:00,
2013-09-21 07:32:00,54.0,53.0,-100.00,East,92,2.0,5.0,96,0.00,,,0.00,1.000000,,2013-09-21 13:32:00,
2013-09-21 07:42:00,54.0,53.0,-100.00,East,92,2.0,5.0,96,0.00,,,0.00,1.000000,,2013-09-21 13:42:00,
2013-09-21 07:52:00,54.0,53.0,-100.00,East,92,2.0,5.0,96,0.00,,,0.00,1.000000,,2013-09-21 13:52:00,
2013-09-21 08:01:00,58.0,57.0,-100.00,ESE,111,3.0,5.0,97,0.00,,,0.00,57.000000,,2013-09-21 14:01:00,
2013-09-21 08:22:00,58.0,57.0,-100.00,ESE,111,3.0,5.0,97,0.00,,,0.00,57.000000,,2013-09-21 14:22:00,
2013-09-21 08:32:00,58.0,57.0,-100.00,ESE,111,3.0,5.0,97,0.00,,,0.00,57.000000,,2013-09-21 14:32:00,
2013-09-21 08:42:00,58.0,57.0,-100.00,ESE,111,3.0,5.0,97,0.00,,,0.00,57.000000,,2013-09-21 14:42:00,
2013-09-21 08:52:00,58.0,57.0,-100.00,ESE,111,3.0,5.0,97,0.00,,,0.00,57.000000,,2013-09-21 14:52:00,
2013-09-21 09:01:00,61.0,57.0,-100.00,SSE,149,8.0,11.0,87,0.00,,,0.00,208.000000,,2013-09-21 15:01:00,
2013-09-21 09:45:00,61.0,57.0,-100.00,SSE,149,8.0,11.0,87,0.00,,,0.00,208.000000,,2013-09-21 15:45:00,
2013-09-21 09:55:00,61.0,57.0,-100.00,SSE,149,8.0,11.0,87,0.00,,,0.00,208.000000,,2013-09-21 15:55:00,
2013-09-21 10:01:00,63.0,56.0,-100.00,SSE,157,8.0,11.0,78,0.00,,,0.00,381.000000,,2013-09-21 16:01:00,
2013-09-21 10:24:00,63.0,56.0,-100.00,SSE,157,8.0,11.0,78,0.00,,,0.00,381.000000,,2013-09-21 16:24:00,
2013-09-21 10:34:00,63.0,56.0,-100.00,SSE,157,8.0,11.0,78,0.00,,,0.00,381.000000,,2013-09-21 16:34:00,
2013-09-21 10:43:00,63.0,56.0,-100.00,SSE,157,8.0,11.0,78,0.00,,,0.00,381.000000,,2013-09-21 16:43:00,
2013-09-21 10:54:00,63.0,56.0,-100.00,SSE,157,8.0,11.0,78,0.00,,,0.00,381.000000,,2013-09-21 16:54:00,
2013-09-21 11:01:00,64.0,56.0,-100.00,SE,139,7.0,13.0,74,0.00,,,0.00,481.000000,,2013-09-21 17:01:00,
2013-09-21 11:43:00,64.0,56.0,-100.00,SE,139,7.0,13.0,74,0.00,,,0.00,481.000000,,2013-09-21 17:43:00,
2013-09-21 11:52:00,64.0,56.0,-100.00,SE,139,7.0,13.0,74,0.00,,,0.00,481.000000,,2013-09-21 17:52:00,
2013-09-21 12:01:00,64.0,56.0,-100.00,South,170,5.0,10.0,75,0.00,,,0.00,297.000000,,2013-09-21 18:01:00,
2013-09-21 12:22:00,64.0,56.0,-100.00,South,170,5.0,10.0,75,0.00,,,0.00,297.000000,,2013-09-21 18:22:00,
2013-09-21 12:32:00,64.0,56.0,-100.00,South,170,5.0,10.0,75,0.00,,,0.00,297.000000,,2013-09-21 18:32:00,
2013-09-21 12:42:00,64.0,56.0,-100.00,South,170,5.0,10.0,75,0.00,,,0.00,297.000000,,2013-09-21 18:42:00,
2013-09-21 12:52:00,64.0,56.0,-100.00,South,170,5.0,10.0,75,0.00,,,0.00,297.000000,,2013-09-21 18:52:00,
2013-09-21 13:01:00,71.0,58.0,-100.00,SE,139,6.0,12.0,63,0.00,,,0.00,879.000000,,2013-09-21 19:01:00,
2013-09-21 13:42:00,71.0,58.0,-100.00,SE,139,6.0,12.0,63,0.00,,,0.00,879.000000,,2013-09-21 19:42:00,
2013-09-21 13:52:00,71.0,58.0,-100.00,SE,139,6.0,12.0,63,0.00,,,0.00,879.000000,,2013-09-21 19:52:00,
2013-09-21 14:01:00,70.0,56.0,-100.00,SSE,150,8.0,11.0,61,0.00,,,0.00,879.000000,,2013-09-21 20:01:00,
2013-09-21 14:22:00,70.0,56.0,-100.00,SSE,150,8.0,11.0,61,0.00,,,0.00,879.000000,,2013-09-21 20:22:00,
2013-09-21 14:32:00,70.0,56.0,-100.00,SSE,150,8.0,11.0,61,0.00,,,0.00,879.000000,,2013-09-21 20:32:00,
2013-09-21 14:43:00,70.0,56.0,-100.00,SSE,150,8.0,11.0,61,0.00,,,0.00,879.000000,,2013-09-21 20:43:00,
2013-09-21 14:52:00,70.0,56.0,-100.00,SSE,150,8.0,11.0,61,0.00,,,0.00,879.000000,,2013-09-21 20:52:00,
2013-09-21 15:01:00,68.0,54.0,-100.00,West,270,3.0,11.0,60,0.00,,,0.00,455.000000,,2013-09-21 21:01:00,
2013-09-21 15:22:00,68.0,54.0,-100.00,West,270,3.0,11.0,60,0.00,,,0.00,455.000000,,2013-09-21 21:22:00,
2013-09-21 15:34:00,68.0,54.0,-100.00,West,270,3.0,11.0,60,0.00,,,0.00,455.000000,,2013-09-21 21:34:00,
2013-09-21 15:45:00,68.0,54.0,-100.00,West,270,3.0,11.0,60,0.00,,,0.00,455.000000,,2013-09-21 21:45:00,
2013-09-21 15:54:00,68.0,54.0,-100.00,West,270,3.0,11.0,60,0.00,,,0.00,455.000000,,2013-09-21 21:54:00,
2013-09-21 16:01:00,70.0,57.0,-100.00,WSW,242,3.0,7.0,63,0.00,,,0.00,275.000000,,2013-09-21 22:01:00,
2013-09-21 16:24:00,70.0,57.0,-100.00,WSW,242,3.0,7.0,63,0.00,,,0.00,275.000000,,2013-09-21 22:24:00,
2013-09-21 16:33:00,70.0,57.0,-100.00,WSW,242,3.0,7.0,63,0.00,,,0.00,275.000000,,2013-09-21 22:33:00,
2013-09-21 16:43:00,70.0,57.0,-100.00,WSW,242,3.0,7.0,63,0.00,,,0.00,275.000000,,2013-09-21 22:43:00,
2013-09-21 16:53:00,70.0,57.0,-100.00,WSW,242,3.0,7.0,63,0.00,,,0.00,275.000000,,2013-09-21 22:53:00,
2013-09-21 17:01:00,68.0,53.0,-100.00,SSE,166,5.0,10.0,58,0.00,,,0.00,215.000000,,2013-09-21 23:01:00,
2013-09-21 17:42:00,68.0,53.0,-100.00,SSE,166,5.0,10.0,58,0.00,,,0.00,215.000000,,2013-09-21 23:42:00,
2013-09-21 17:53:00,68.0,53.0,-100.00,SSE,166,5.0,10.0,58,0.00,,,0.00,215.000000,,2013-09-21 23:53:00,
2013-09-21 18:01:00,66.0,53.0,-100.00,SSE,162,6.0,9.0,62,0.00,,,0.00,174.000000,,2013-09-22 00:01:00,
2013-09-21 18:23:00,66.0,53.0,-100.00,SSE,162,6.0,9.0,62,0.00,,,0.00,174.000000,,2013-09-22 00:23:00,
2013-09-21 18:32:00,66.0,53.0,-100.00,SSE,162,6.0,9.0,62,0.00,,,0.00,174.000000,,2013-09-22 00:32:00,
2013-09-21 18:43:00,66.0,53.0,-100.00,SSE,162,6.0,9.0,62,0.00,,,0.00,174.000000,,2013-09-22 00:43:00,
2013-09-21 18:52:00,66.0,53.0,-100.00,SSE,162,6.0,9.0,62,0.00,,,0.00,174.000000,,2013-09-22 00:52:00,
2013-09-21 19:01:00,62.0,52.0,-100.00,South,171,4.0,9.0,70,0.00,,,0.00,56.000000,,2013-09-22 01:01:00,
2013-09-21 19:42:00,62.0,52.0,-100.00,South,171,4.0,9.0,70,0.00,,,0.00,56.000000,,2013-09-22 01:42:00,
2013-09-21 19:52:00,62.0,52.0,-100.00,South,171,4.0,9.0,70,0.00,,,0.00,56.000000,,2013-09-22 01:52:00,
2013-09-21 20:01:00,59.0,53.0,-100.00,ENE,70,3.0,4.0,81,0.00,,,0.00,1.000000,,2013-09-22 02:01:00,
2013-09-21 20:42:00,59.0,53.0,-100.00,ENE,70,3.0,4.0,81,0.00,,,0.00,1.000000,,2013-09-22 02:42:00,
2013-09-21 20:52:00,59.0,53.0,-100.00,ENE,70,3.0,4.0,81,0.00,,,0.00,1.000000,,2013-09-22 02:52:00,
2013-09-21 21:01:00,-999.0,-99.9,-100.00,East,86,4.0,5.0,-999,-99.99,,,-99.99,0.000000,,2013-09-22 03:01:00,
2013-09-21 21:22:00,58.0,53.0,-100.00,East,86,4.0,5.0,82,0.00,,,0.00,0.000000,,2013-09-22 03:22:00,
2013-09-21 21:34:00,58.0,53.0,-100.00,East,86,4.0,5.0,82,0.00,,,0.00,0.000000,,2013-09-22 03:34:00,
2013-09-21 21:45:00,58.0,53.0,-100.00,East,86,4.0,5.0,82,0.00,,,0.00,0.000000,,2013-09-22 03:45:00,
2013-09-21 21:54:00,58.0,53.0,-100.00,East,86,4.0,5.0,82,0.00,,,0.00,0.000000,,2013-09-22 03:54:00,
2013-09-21 22:01:00,57.0,51.0,-100.00,ENE,73,3.0,5.0,80,0.00,,,0.00,0.000000,,2013-09-22 04:01:00,
2013-09-21 22:24:00,57.0,51.0,-100.00,ENE,73,3.0,5.0,80,0.00,,,0.00,0.000000,,2013-09-22 04:24:00,
2013-09-21 22:33:00,57.0,51.0,-100.00,ENE,73,3.0,5.0,80,0.00,,,0.00,0.000000,,2013-09-22 04:33:00,
2013-09-21 22:44:00,57.0,51.0,-100.00,ENE,73,3.0,5.0,80,0.00,,,0.00,0.000000,,2013-09-22 04:44:00,
2013-09-21 22:54:00,57.0,51.0,-100.00,ENE,73,3.0,5.0,80,0.00,,,0.00,0.000000,,2013-09-22 04:54:00,
2013-09-21 23:01:00,57.0,51.0,-100.00,NNW,335,1.0,5.0,81,0.00,,,0.00,0.000000,,2013-09-22 05:01:00,
2013-09-21 23:23:00,57.0,51.0,-100.00,NNW,335,1.0,5.0,81,0.00,,,0.00,0.000000,,2013-09-22 05:23:00,
2013-09-21 23:35:00,57.0,51.0,-100.00,NNW,335,1.0,5.0,81,0.00,,,0.00,0.000000,,2013-09-22 05:35:00,
2013-09-21 23:43:00,57.0,51.0,-100.00,NNW,335,1.0,5.0,81,0.00,,,0.00,0.000000,,2013-09-22 05:43:00,
2013-09-21 23:53:00,57.0,51.0,-100.00,NNW,335,1.0,5.0,81,0.00,,,0.00,0.000000,,2013-09-22 05:53:00,